createdAt,value
2018-12-10T00:01:01.961Z,71.00
2018-12-10T00:03:35.296Z,70.04
2018-12-10T00:06:03.205Z,70.79
2018-12-10T00:08:31.012Z,70.72
2018-12-10T00:10:58.784Z,70.68
2018-12-10T00:13:26.597Z,69.87
2018-12-10T00:15:54.383Z,70.05
2018-12-10T00:18:22.144Z,70.39
2018-12-10T00:20:49.893Z,70.49
2018-12-10T00:23:17.767Z,70.20
2018-12-10T00:25:45.533Z,73.09
2018-12-10T00:28:13.288Z,71.88
2018-12-10T00:30:41.038Z,71.64
2018-12-10T00:33:08.850Z,72.18
2018-12-10T00:35:36.626Z,73.03
2018-12-10T00:38:04.409Z,73.36
2018-12-10T00:40:32.154Z,74.26
2018-12-10T00:42:59.925Z,74.29
2018-12-10T00:45:27.712Z,74.01
2018-12-10T00:47:55.473Z,73.20
2018-12-10T00:50:23.258Z,72.80
2018-12-10T00:52:50.980Z,72.36
2018-12-10T00:55:18.761Z,71.96
2018-12-10T00:57:46.505Z,70.85
2018-12-10T01:00:14.266Z,72.16
2018-12-10T01:02:42.082Z,74.13
2018-12-10T01:05:09.847Z,74.60
2018-12-10T01:07:38.592Z,72.74
2018-12-10T01:10:06.575Z,70.44
2018-12-10T01:12:35.348Z,70.93
2018-12-10T01:15:03.257Z,72.29
2018-12-10T01:17:31.009Z,73.04
2018-12-10T01:19:58.790Z,73.61
2018-12-10T01:22:26.501Z,74.16
2018-12-10T01:24:54.237Z,74.52
2018-12-10T01:27:22.056Z,74.40
2018-12-10T01:29:49.806Z,74.19
2018-12-10T01:32:17.630Z,73.85
2018-12-10T01:34:46.163Z,73.25
2018-12-10T01:37:13.939Z,73.19
2018-12-10T01:39:41.739Z,73.30
2018-12-10T01:42:09.528Z,73.35
2018-12-10T01:44:37.334Z,73.56
2018-12-10T01:47:05.180Z,72.76
2018-12-10T01:49:32.954Z,72.28
2018-12-10T01:52:00.680Z,72.47
2018-12-10T01:54:28.464Z,73.73
2018-12-10T01:56:56.261Z,72.13
2018-12-10T01:59:23.971Z,72.23
2018-12-10T02:01:51.738Z,72.39
2018-12-10T02:04:19.521Z,72.26
2018-12-10T02:06:47.270Z,72.64
2018-12-10T02:09:15.008Z,72.54
2018-12-10T02:11:42.741Z,72.38
2018-12-10T02:14:10.470Z,72.57
2018-12-10T02:16:38.222Z,72.72
2018-12-10T02:19:06.056Z,72.12
2018-12-10T02:21:33.808Z,71.56
2018-12-10T02:24:01.593Z,70.83
2018-12-10T02:26:29.311Z,71.00
2018-12-10T02:29:02.765Z,71.42
2018-12-10T02:31:30.593Z,71.62
2018-12-10T02:33:58.325Z,72.06
2018-12-10T02:36:26.098Z,72.75
2018-12-10T02:38:53.802Z,73.60
2018-12-10T02:41:21.540Z,72.48
2018-12-10T02:43:49.258Z,72.98
2018-12-10T02:46:17.187Z,73.42
2018-12-10T02:48:45.137Z,73.30
2018-12-10T02:51:13.165Z,73.16
2018-12-10T02:53:40.930Z,73.97
2018-12-10T02:56:08.698Z,73.40
2018-12-10T02:58:36.449Z,73.49
2018-12-10T03:01:04.289Z,73.05
2018-12-10T03:03:32.089Z,73.56
2018-12-10T03:05:59.842Z,72.60
2018-12-10T03:08:27.654Z,70.51
2018-12-10T03:10:55.395Z,69.32
2018-12-10T03:13:23.206Z,68.83
2018-12-10T03:15:50.933Z,68.86
2018-12-10T03:18:18.701Z,68.88
2018-12-10T03:20:46.472Z,68.90
2018-12-10T03:23:14.251Z,67.16
2018-12-10T03:25:42.010Z,65.93
2018-12-10T03:28:09.755Z,64.99
2018-12-10T03:30:37.577Z,65.20
2018-12-10T03:33:05.347Z,65.72
2018-12-10T03:35:33.089Z,64.92
2018-12-10T03:38:00.868Z,65.17
2018-12-10T03:40:29.885Z,65.45
2018-12-10T03:42:57.665Z,65.31
2018-12-10T03:45:25.528Z,64.75
2018-12-10T03:47:53.268Z,64.56
2018-12-10T03:50:21.027Z,63.30
2018-12-10T03:52:48.774Z,63.23
2018-12-10T03:55:16.541Z,63.85
2018-12-10T03:57:44.329Z,62.81
2018-12-10T04:00:12.230Z,60.88
2018-12-10T04:02:40.058Z,62.25
2018-12-10T04:05:07.871Z,63.12
2018-12-10T04:07:35.641Z,64.04
2018-12-10T04:10:03.756Z,63.43
2018-12-10T04:12:31.491Z,62.57
2018-12-10T04:14:59.276Z,62.92
2018-12-10T04:17:27.205Z,62.79
2018-12-10T04:19:54.964Z,63.40
2018-12-10T04:22:22.735Z,63.44
2018-12-10T04:24:50.510Z,63.24
2018-12-10T04:27:18.341Z,64.26
2018-12-10T04:29:46.125Z,65.05
2018-12-10T04:32:13.900Z,65.71
2018-12-10T04:34:41.677Z,66.87
2018-12-10T04:37:10.169Z,65.21
2018-12-10T04:39:37.948Z,63.07
2018-12-10T04:42:05.730Z,60.55
2018-12-10T04:44:33.483Z,60.92
2018-12-10T04:47:01.236Z,62.98
2018-12-10T04:49:28.995Z,63.16
2018-12-10T04:51:56.778Z,64.27
2018-12-10T04:54:24.666Z,64.83
2018-12-10T04:56:52.496Z,63.93
2018-12-10T04:59:20.563Z,64.16
2018-12-10T05:01:48.468Z,63.95
2018-12-10T05:04:16.240Z,64.05
2018-12-10T05:06:44.045Z,65.77
2018-12-10T05:09:12.442Z,67.61
2018-12-10T05:11:40.245Z,68.44
2018-12-10T05:14:08.047Z,68.64
2018-12-10T05:16:35.797Z,69.23
2018-12-10T05:22:49.715Z,69.33
2018-12-10T05:25:18.501Z,70.40
2018-12-10T05:27:46.246Z,71.96
2018-12-10T05:30:14.002Z,72.08
2018-12-10T05:32:41.823Z,71.37
2018-12-10T05:35:09.608Z,70.08
2018-12-10T05:37:37.353Z,68.21
2018-12-10T05:40:05.444Z,67.73
2018-12-10T05:42:33.234Z,68.57
2018-12-10T05:45:01.192Z,69.48
2018-12-10T05:47:28.904Z,69.52
2018-12-10T05:49:57.268Z,70.00
2018-12-10T05:52:25.011Z,70.18
2018-12-10T05:54:52.754Z,69.00
2018-12-10T05:57:20.561Z,67.78
2018-12-10T05:59:48.353Z,66.68
2018-12-10T06:02:16.082Z,66.52
2018-12-10T06:04:43.958Z,65.83
2018-12-10T06:07:11.706Z,68.32
2018-12-10T06:09:39.466Z,71.12
2018-12-10T06:12:07.389Z,73.60
2018-12-10T06:14:35.197Z,74.00
2018-12-10T06:17:03.091Z,72.20
2018-12-10T06:19:30.853Z,71.53
2018-12-10T06:21:58.616Z,70.57
2018-12-10T06:24:26.419Z,70.19
2018-12-10T06:26:54.135Z,70.13
2018-12-10T06:29:21.893Z,70.43
2018-12-10T06:31:49.626Z,70.68
2018-12-10T06:34:17.367Z,70.85
2018-12-10T06:36:45.087Z,71.02
2018-12-10T06:39:12.844Z,70.88
2018-12-10T06:41:40.681Z,71.40
2018-12-10T06:44:08.425Z,71.10
2018-12-10T06:46:36.198Z,70.54
2018-12-10T06:49:03.954Z,70.65
2018-12-10T06:51:31.712Z,70.33
2018-12-10T06:53:59.502Z,70.16
2018-12-10T06:56:27.248Z,70.27
2018-12-10T06:58:55.088Z,71.68
2018-12-10T07:01:22.867Z,72.70
2018-12-10T07:03:53.966Z,73.50
2018-12-10T07:06:21.710Z,74.29
2018-12-10T07:08:50.751Z,75.18
2018-12-10T07:11:18.474Z,74.60
2018-12-10T07:13:46.263Z,74.59
2018-12-10T07:16:14.042Z,75.85
2018-12-10T07:18:42.484Z,74.74
2018-12-10T07:21:10.373Z,75.96
2018-12-10T07:23:38.230Z,76.39
2018-12-10T07:26:06.041Z,74.64
2018-12-10T07:28:33.780Z,76.12
2018-12-10T07:31:01.548Z,75.49
2018-12-10T07:33:29.317Z,76.05
2018-12-10T07:35:57.099Z,74.11
2018-12-10T07:38:24.893Z,74.22
2018-12-10T07:40:52.657Z,76.50
2018-12-10T07:43:20.419Z,76.13
2018-12-10T07:45:48.220Z,75.73
2018-12-10T07:48:15.997Z,75.72
2018-12-10T07:50:43.807Z,75.73
2018-12-10T07:53:11.597Z,75.34
2018-12-10T07:55:39.332Z,75.80
2018-12-10T07:58:07.228Z,75.73
2018-12-10T08:00:35.050Z,76.05
2018-12-10T08:03:02.836Z,76.26
2018-12-10T08:05:30.597Z,76.82
2018-12-10T08:07:58.365Z,77.22
2018-12-10T08:10:26.098Z,76.95
2018-12-10T08:12:53.846Z,76.84
2018-12-10T08:15:21.633Z,76.43
2018-12-10T08:17:49.446Z,75.98
2018-12-10T08:20:17.240Z,75.81
2018-12-10T08:22:45.161Z,75.17
2018-12-10T08:25:13.029Z,74.42
2018-12-10T08:27:40.808Z,74.12
2018-12-10T08:30:08.872Z,73.75
2018-12-10T08:32:36.686Z,73.53
2018-12-10T08:35:04.673Z,72.76
2018-12-10T08:37:32.460Z,70.64
2018-12-10T08:40:00.225Z,69.47
2018-12-10T08:42:28.042Z,69.81
2018-12-10T08:44:55.845Z,69.69
2018-12-10T08:47:23.644Z,71.48
2018-12-10T08:49:51.447Z,72.49
2018-12-10T08:52:19.233Z,73.20
2018-12-10T08:54:47.096Z,72.27
2018-12-10T08:57:14.941Z,70.88
2018-12-10T08:59:42.917Z,69.04
2018-12-10T09:02:10.669Z,68.49
2018-12-10T09:04:38.589Z,68.27
2018-12-10T09:07:06.412Z,68.83
2018-12-10T09:09:34.190Z,68.91
2018-12-10T09:12:02.107Z,70.20
2018-12-10T09:14:29.929Z,71.10
2018-12-10T09:16:57.738Z,72.13
2018-12-10T09:19:25.587Z,71.43
2018-12-10T09:21:54.067Z,72.06
2018-12-10T09:24:21.865Z,71.76
2018-12-10T09:26:49.826Z,71.79
2018-12-10T09:29:17.637Z,73.06
2018-12-10T09:31:45.438Z,73.67
2018-12-10T09:34:13.232Z,74.31
2018-12-10T09:36:40.984Z,73.99
2018-12-10T09:39:08.841Z,74.40
2018-12-10T09:41:36.579Z,74.91
2018-12-10T09:44:04.401Z,74.62
2018-12-10T09:46:32.127Z,74.31
2018-12-10T09:48:59.973Z,74.24
2018-12-10T09:51:27.741Z,72.27
2018-12-10T09:53:55.485Z,70.84
2018-12-10T09:56:23.348Z,70.97
2018-12-10T09:58:51.108Z,70.52
2018-12-10T10:01:18.891Z,71.27
2018-12-10T10:03:46.646Z,72.24
2018-12-10T10:06:14.473Z,71.63
2018-12-10T10:08:42.393Z,69.11
2018-12-10T10:11:10.178Z,65.96
2018-12-10T10:13:37.933Z,66.81
2018-12-10T10:16:05.850Z,69.09
2018-12-10T10:18:33.673Z,72.28
2018-12-10T10:21:01.441Z,73.99
2018-12-10T10:23:29.174Z,72.60
2018-12-10T10:25:56.951Z,71.39
2018-12-10T10:28:24.769Z,70.89
2018-12-10T10:30:52.640Z,70.86
2018-12-10T10:33:20.438Z,71.47
2018-12-10T10:35:48.238Z,70.99
2018-12-10T10:38:16.026Z,71.27
2018-12-10T10:40:44.756Z,71.35
2018-12-10T10:43:12.606Z,71.94
2018-12-10T10:45:40.526Z,72.32
2018-12-10T10:48:08.334Z,72.35
2018-12-10T10:50:36.072Z,69.98
2018-12-10T10:53:03.929Z,71.02
2018-12-10T10:55:34.513Z,72.25
2018-12-10T10:58:02.420Z,71.69
2018-12-10T11:00:35.892Z,70.16
2018-12-10T11:03:07.547Z,70.47
2018-12-10T11:05:35.289Z,68.63
2018-12-10T11:08:03.166Z,68.78
2018-12-10T11:10:30.920Z,69.29
2018-12-10T11:12:58.663Z,69.56
2018-12-10T11:15:26.375Z,68.85
2018-12-10T11:17:54.266Z,67.95
2018-12-10T11:20:22.212Z,68.05
2018-12-10T11:22:52.053Z,68.98
2018-12-10T11:25:19.794Z,68.01
2018-12-10T11:27:47.673Z,67.88
2018-12-10T11:30:15.531Z,65.36
2018-12-10T11:32:45.492Z,65.71
2018-12-10T11:35:13.332Z,66.77
2018-12-10T11:37:41.135Z,65.64
2018-12-10T11:40:09.027Z,65.50
2018-12-10T11:42:36.845Z,64.20
2018-12-10T11:45:05.049Z,62.56
2018-12-10T11:47:32.849Z,63.13
2018-12-10T11:50:00.630Z,61.78
2018-12-10T11:52:28.418Z,62.60
2018-12-10T11:54:56.152Z,63.31
2018-12-10T11:57:23.976Z,65.78
2018-12-10T11:59:51.701Z,64.86
2018-12-10T12:02:19.548Z,65.81
2018-12-10T12:04:47.345Z,65.98
2018-12-10T12:07:15.049Z,64.63
2018-12-10T12:09:42.864Z,65.86
2018-12-10T12:12:10.645Z,67.12
2018-12-10T12:14:38.406Z,67.96
2018-12-10T12:17:06.161Z,67.98
2018-12-10T12:19:34.071Z,67.91
2018-12-10T12:22:05.198Z,67.06
2018-12-10T12:24:34.605Z,66.69
2018-12-10T12:27:02.366Z,66.42
2018-12-10T12:29:30.133Z,66.24
2018-12-10T12:31:57.932Z,65.76
2018-12-10T12:34:26.229Z,67.44
2018-12-10T12:36:54.054Z,68.42
2018-12-10T12:39:22.020Z,67.82
2018-12-10T12:41:49.793Z,68.18
2018-12-10T12:44:17.580Z,67.19
2018-12-10T12:46:45.358Z,63.31
2018-12-10T12:49:13.061Z,61.65
2018-12-10T12:51:41.173Z,60.13
2018-12-10T12:54:08.988Z,60.76
2018-12-10T12:56:36.857Z,60.55
2018-12-10T12:59:04.672Z,60.66
2018-12-10T13:01:32.465Z,62.60
2018-12-10T13:04:00.274Z,62.90
2018-12-10T13:06:28.101Z,63.73
2018-12-10T13:08:55.882Z,63.02
2018-12-10T13:11:23.651Z,62.60
2018-12-10T13:13:51.395Z,62.10
2018-12-10T13:16:19.149Z,63.06
2018-12-10T13:18:47.298Z,63.44
2018-12-10T13:21:15.040Z,63.03
2018-12-10T13:23:43.029Z,61.44
2018-12-10T13:26:10.850Z,60.62
2018-12-10T13:28:38.649Z,60.55
2018-12-10T13:31:06.455Z,61.68
2018-12-10T13:33:34.250Z,61.12
2018-12-10T13:36:02.124Z,66.32
2018-12-10T13:38:29.949Z,68.78
2018-12-10T13:40:57.795Z,68.93
2018-12-10T13:43:25.595Z,69.38
2018-12-10T13:45:53.387Z,70.06
2018-12-10T13:48:21.317Z,69.93
2018-12-10T13:50:49.071Z,70.14
2018-12-10T13:53:16.973Z,69.44
2018-12-10T13:55:44.790Z,69.57
2018-12-10T13:58:12.670Z,70.52
2018-12-10T14:00:40.534Z,71.75
2018-12-10T14:03:08.302Z,72.39
2018-12-10T14:05:36.224Z,73.81
2018-12-10T14:08:04.169Z,75.17
2018-12-10T14:10:31.937Z,75.65
2018-12-10T14:12:59.774Z,76.07
2018-12-10T14:15:27.549Z,75.99
2018-12-10T14:17:55.281Z,75.76
2018-12-10T14:20:23.471Z,76.41
2018-12-10T14:22:51.989Z,76.80
2018-12-10T14:25:23.308Z,76.44
2018-12-10T14:27:51.323Z,76.38
2018-12-10T14:30:19.303Z,76.46
2018-12-10T14:32:47.144Z,76.41
2018-12-10T14:35:14.899Z,77.13
2018-12-10T14:37:42.640Z,76.71
2018-12-10T14:40:10.455Z,76.90
2018-12-10T14:42:50.844Z,77.65
2018-12-10T14:45:18.746Z,77.70
2018-12-10T14:48:05.606Z,77.79
2018-12-10T14:50:33.351Z,77.78
2018-12-10T14:53:01.103Z,77.95
2018-12-10T14:55:28.981Z,78.40
2018-12-10T14:57:56.875Z,78.16
2018-12-10T15:00:24.650Z,76.38
2018-12-10T15:02:52.418Z,75.36
2018-12-10T15:05:20.137Z,75.68
2018-12-10T15:07:47.899Z,74.62
2018-12-10T15:10:16.484Z,74.41
2018-12-10T15:12:44.255Z,73.75
2018-12-10T15:15:12.248Z,73.20
2018-12-10T15:17:40.009Z,73.32
2018-12-10T15:20:12.693Z,72.49
2018-12-10T15:22:40.652Z,72.87
2018-12-10T15:25:09.163Z,72.89
2018-12-10T15:27:37.122Z,73.05
2018-12-10T15:30:07.773Z,73.72
2018-12-10T15:32:35.540Z,74.09
2018-12-10T15:35:03.669Z,73.93
2018-12-10T15:37:31.448Z,74.12
2018-12-10T15:39:59.273Z,73.96
2018-12-10T15:42:27.052Z,74.32
2018-12-10T15:44:54.977Z,74.22
2018-12-10T15:47:22.905Z,74.24
2018-12-10T15:49:50.772Z,73.89
2018-12-10T15:52:18.495Z,72.91
2018-12-10T15:54:46.220Z,72.81
2018-12-10T15:57:14.644Z,72.10
2018-12-10T15:59:42.416Z,72.46
2018-12-10T16:02:10.295Z,72.27
2018-12-10T16:04:38.835Z,72.10
2018-12-10T16:07:06.628Z,71.98
2018-12-10T16:09:34.468Z,71.98
2018-12-10T16:12:02.237Z,71.73
2018-12-10T16:14:30.052Z,70.43
2018-12-10T16:16:57.827Z,70.20
2018-12-10T16:19:25.614Z,70.99
2018-12-10T16:21:53.353Z,71.72
2018-12-10T16:24:21.175Z,72.54
2018-12-10T16:26:49.046Z,72.94
2018-12-10T16:29:16.817Z,73.07
2018-12-10T16:31:44.736Z,72.39
2018-12-10T16:34:12.641Z,70.91
2018-12-10T16:36:41.102Z,70.59
2018-12-10T16:39:09.680Z,70.53
2018-12-10T16:41:37.581Z,69.77
2018-12-10T16:44:05.340Z,69.97
2018-12-10T16:49:13.558Z,71.44
2018-12-10T16:51:41.507Z,71.54
2018-12-10T16:54:09.417Z,72.01
2018-12-10T16:56:37.245Z,71.96
2018-12-10T16:59:05.060Z,72.33
2018-12-10T17:01:32.834Z,72.18
2018-12-10T17:04:00.659Z,72.36
2018-12-10T17:06:28.421Z,71.77
2018-12-10T17:08:56.176Z,71.69
2018-12-10T17:11:23.965Z,71.63
2018-12-10T17:13:52.591Z,70.92
2018-12-10T17:16:20.443Z,70.65
2018-12-10T17:18:48.165Z,70.40
2018-12-10T17:21:15.969Z,70.13
2018-12-10T17:23:43.952Z,70.20
2018-12-10T17:26:11.731Z,69.91
2018-12-10T17:28:39.522Z,69.55
2018-12-10T17:31:07.253Z,70.05
2018-12-10T17:33:34.981Z,70.48
2018-12-10T17:36:02.873Z,70.44
2018-12-10T17:38:31.062Z,69.07
2018-12-10T17:40:58.865Z,68.42
2018-12-10T17:43:27.032Z,68.30
2018-12-10T17:45:54.813Z,68.75
2018-12-10T17:48:23.884Z,69.25
2018-12-10T17:50:51.697Z,69.92
2018-12-10T17:53:20.565Z,70.94
2018-12-10T17:55:49.048Z,71.29
2018-12-10T17:58:16.840Z,71.58
2018-12-10T18:00:45.746Z,71.56
2018-12-10T18:03:13.518Z,71.29
2018-12-10T18:05:41.301Z,71.38
2018-12-10T18:08:09.169Z,71.29
2018-12-10T18:10:37.094Z,70.72
2018-12-10T18:13:04.949Z,68.88
2018-12-10T18:15:33.974Z,68.28
2018-12-10T18:18:01.763Z,67.31
2018-12-10T18:20:29.824Z,67.11
2018-12-10T18:22:57.598Z,67.19
2018-12-10T18:25:25.375Z,67.43
2018-12-10T18:27:53.505Z,71.01
2018-12-10T18:30:21.374Z,72.25
2018-12-10T18:32:49.237Z,71.78
2018-12-10T18:35:17.374Z,72.01
2018-12-10T18:37:45.381Z,72.79
2018-12-10T18:40:13.399Z,73.04
2018-12-10T18:42:41.197Z,73.01
2018-12-10T18:45:12.320Z,73.46
2018-12-10T18:47:40.102Z,73.98
2018-12-10T18:50:08.102Z,73.42
2018-12-10T18:52:35.917Z,73.55
2018-12-10T18:55:04.917Z,73.70
2018-12-10T18:57:32.645Z,73.40
2018-12-10T19:00:00.365Z,72.24
2018-12-10T19:02:28.196Z,71.84
2018-12-10T19:04:56.021Z,70.68
2018-12-10T19:07:23.784Z,70.43
2018-12-10T19:09:51.532Z,70.06
2018-12-10T19:12:19.911Z,70.13
2018-12-10T19:14:48.224Z,70.03
2018-12-10T19:17:15.999Z,69.76
2018-12-10T19:19:43.829Z,70.29
2018-12-10T19:22:11.577Z,70.81
2018-12-10T19:24:39.381Z,71.33
2018-12-10T19:27:07.161Z,71.76
2018-12-10T19:29:34.934Z,73.56
2018-12-10T19:32:02.711Z,73.47
2018-12-10T19:34:30.431Z,71.55
2018-12-10T19:36:59.253Z,71.59
2018-12-10T19:39:27.065Z,71.88
2018-12-10T19:41:54.852Z,72.37
2018-12-10T19:44:22.656Z,72.54
2018-12-10T19:46:50.391Z,72.58
2018-12-10T19:49:18.625Z,72.96
2018-12-10T19:51:46.531Z,72.96
2018-12-10T19:54:15.128Z,72.85
2018-12-10T19:56:43.409Z,72.36
2018-12-10T19:59:11.133Z,72.12
2018-12-10T20:01:38.897Z,72.04
2018-12-10T20:04:06.669Z,71.55
2018-12-10T20:06:38.923Z,71.54
2018-12-10T20:09:08.045Z,71.67
2018-12-10T20:11:36.027Z,71.91
2018-12-10T20:14:04.780Z,72.25
2018-12-10T20:16:32.706Z,72.33
2018-12-10T20:19:00.464Z,70.88
2018-12-10T20:21:28.233Z,71.37
2018-12-10T20:23:57.166Z,72.16
2018-12-10T20:26:24.948Z,72.61
2018-12-10T20:28:52.877Z,72.07
2018-12-10T20:31:20.639Z,71.83
2018-12-10T20:33:48.407Z,71.44
2018-12-10T20:36:16.350Z,70.88
2018-12-10T20:38:44.714Z,71.10
2018-12-10T20:41:12.620Z,71.15
2018-12-10T20:43:40.374Z,70.76
2018-12-10T20:46:08.121Z,70.36
2018-12-10T20:48:37.044Z,70.51
2018-12-10T20:51:06.048Z,71.00
2018-12-10T20:53:33.931Z,70.63
2018-12-10T20:56:01.748Z,70.72
2018-12-10T20:58:29.521Z,71.64
2018-12-10T21:00:57.432Z,71.93
2018-12-10T21:03:25.274Z,72.08
2018-12-10T21:05:58.661Z,72.20
2018-12-10T21:08:26.396Z,72.39
2018-12-10T21:10:54.196Z,72.56
2018-12-10T21:13:21.997Z,70.41
2018-12-10T21:15:49.729Z,67.94
2018-12-10T21:18:17.729Z,67.28
2018-12-10T21:20:45.600Z,67.78
2018-12-10T21:23:13.381Z,68.21
2018-12-10T21:25:41.173Z,69.25
2018-12-10T21:28:08.993Z,69.25
2018-12-10T21:30:36.762Z,69.20
2018-12-10T21:33:04.573Z,69.79
2018-12-10T21:35:32.420Z,70.59
2018-12-10T21:38:00.153Z,73.01
2018-12-10T21:40:27.925Z,73.42
2018-12-10T21:42:55.676Z,73.79
2018-12-10T21:45:23.421Z,73.67
2018-12-10T21:47:51.173Z,73.72
2018-12-10T21:50:19.013Z,72.91
2018-12-10T21:52:46.744Z,72.47
2018-12-10T21:55:16.958Z,72.44
2018-12-10T21:57:44.298Z,72.53
2018-12-10T22:00:12.087Z,71.27
2018-12-10T22:02:39.880Z,69.57
2018-12-10T22:05:07.703Z,69.88
2018-12-10T22:07:35.489Z,68.00
2018-12-10T22:10:04.047Z,67.39
2018-12-10T22:12:31.848Z,67.16
2018-12-10T22:14:59.674Z,68.87
2018-12-10T22:17:27.464Z,70.09
2018-12-10T22:19:55.234Z,71.01
2018-12-10T22:22:22.972Z,70.79
2018-12-10T22:24:50.790Z,71.02
2018-12-10T22:27:18.601Z,71.64
2018-12-10T22:29:46.373Z,71.74
2018-12-10T22:32:14.157Z,70.65
2018-12-10T22:34:41.929Z,68.47
2018-12-10T22:37:09.710Z,67.12
2018-12-10T22:39:37.466Z,65.87
2018-12-10T22:42:05.236Z,64.45
2018-12-10T22:44:32.949Z,65.39
2018-12-10T22:47:00.698Z,65.09
2018-12-10T22:49:28.493Z,65.22
2018-12-10T22:51:56.250Z,64.65
2018-12-10T22:54:23.984Z,64.41
2018-12-10T22:56:51.763Z,63.65
2018-12-10T22:59:19.516Z,63.56
2018-12-10T23:01:48.209Z,62.44
2018-12-10T23:04:15.973Z,62.58
2018-12-10T23:06:43.768Z,63.24
2018-12-10T23:09:11.609Z,62.65
2018-12-10T23:11:39.414Z,63.34
2018-12-10T23:14:07.201Z,63.42
2018-12-10T23:16:35.001Z,64.01
2018-12-10T23:19:02.800Z,65.30
2018-12-10T23:21:30.618Z,65.45
2018-12-10T23:23:58.436Z,64.55
2018-12-10T23:26:26.255Z,64.46
2018-12-10T23:28:54.056Z,64.59
2018-12-10T23:31:21.888Z,64.45
2018-12-10T23:33:49.696Z,64.72
2018-12-10T23:36:17.459Z,64.01
2018-12-10T23:38:45.236Z,64.19
2018-12-10T23:41:13.089Z,65.05
2018-12-10T23:43:40.878Z,66.78
2018-12-10T23:46:08.661Z,67.66
2018-12-10T23:48:36.463Z,67.86
2018-12-10T23:51:04.337Z,67.88
2018-12-10T23:53:32.302Z,68.11
2018-12-10T23:56:01.280Z,68.42
2018-12-10T23:58:29.275Z,69.21
